sensor_id;sensor_type;location;lat;lon;timestamp;P1;durP1;ratioP1;P2;durP2;ratioP2
24161;SDS011;12318;51.262;7.066;2023-03-12T00:01:51;11.60;;;3.00;;
24161;SDS011;12318;51.262;7.066;2023-03-12T00:04:17;9.93;;;2.72;;
24161;SDS011;12318;51.262;7.066;2023-03-12T00:06:43;9.57;;;3.33;;
24161;SDS011;12318;51.262;7.066;2023-03-12T00:09:09;9.45;;;3.15;;
24161;SDS011;12318;51.262;7.066;2023-03-12T00:11:34;7.72;;;2.97;;
24161;SDS011;12318;51.262;7.066;2023-03-12T00:14:00;15.65;;;3.13;;
24161;SDS011;12318;51.262;7.066;2023-03-12T00:16:26;9.60;;;3.35;;
24161;SDS011;12318;51.262;7.066;2023-03-12T00:18:52;11.00;;;2.90;;
24161;SDS011;12318;51.262;7.066;2023-03-12T00:21:19;7.05;;;3.03;;
24161;SDS011;12318;51.262;7.066;2023-03-12T00:23:48;9.73;;;2.70;;
24161;SDS011;12318;51.262;7.066;2023-03-12T00:26:15;7.60;;;2.67;;
24161;SDS011;12318;51.262;7.066;2023-03-12T00:28:42;7.78;;;2.80;;
24161;SDS011;12318;51.262;7.066;2023-03-12T00:31:12;7.95;;;2.95;;
24161;SDS011;12318;51.262;7.066;2023-03-12T00:33:43;10.43;;;2.90;;
24161;SDS011;12318;51.262;7.066;2023-03-12T00:36:10;9.30;;;2.70;;
24161;SDS011;12318;51.262;7.066;2023-03-12T00:38:36;6.88;;;2.50;;
24161;SDS011;12318;51.262;7.066;2023-03-12T00:41:02;6.75;;;2.45;;
24161;SDS011;12318;51.262;7.066;2023-03-12T00:43:27;7.20;;;2.40;;
24161;SDS011;12318;51.262;7.066;2023-03-12T00:45:53;9.77;;;2.83;;
24161;SDS011;12318;51.262;7.066;2023-03-12T00:48:19;8.68;;;2.70;;
24161;SDS011;12318;51.262;7.066;2023-03-12T00:50:45;8.52;;;2.85;;
24161;SDS011;12318;51.262;7.066;2023-03-12T00:53:11;8.57;;;2.92;;
24161;SDS011;12318;51.262;7.066;2023-03-12T00:55:37;7.80;;;3.15;;
24161;SDS011;12318;51.262;7.066;2023-03-12T00:58:02;9.82;;;2.80;;
24161;SDS011;12318;51.262;7.066;2023-03-12T01:00:28;8.77;;;2.70;;
24161;SDS011;12318;51.262;7.066;2023-03-12T01:02:54;13.32;;;2.78;;
24161;SDS011;12318;51.262;7.066;2023-03-12T01:05:20;8.88;;;2.60;;
24161;SDS011;12318;51.262;7.066;2023-03-12T01:07:48;10.63;;;2.58;;
24161;SDS011;12318;51.262;7.066;2023-03-12T01:10:16;5.25;;;2.38;;
24161;SDS011;12318;51.262;7.066;2023-03-12T01:12:43;12.43;;;2.70;;
24161;SDS011;12318;51.262;7.066;2023-03-12T01:15:10;6.40;;;2.25;;
24161;SDS011;12318;51.262;7.066;2023-03-12T01:17:39;6.53;;;2.60;;
24161;SDS011;12318;51.262;7.066;2023-03-12T01:20:05;6.32;;;2.30;;
24161;SDS011;12318;51.262;7.066;2023-03-12T01:22:32;7.75;;;2.58;;
24161;SDS011;12318;51.262;7.066;2023-03-12T01:24:58;6.03;;;2.63;;
24161;SDS011;12318;51.262;7.066;2023-03-12T01:27:24;5.20;;;2.28;;
24161;SDS011;12318;51.262;7.066;2023-03-12T01:29:50;9.02;;;2.38;;
24161;SDS011;12318;51.262;7.066;2023-03-12T01:32:16;7.90;;;2.65;;
24161;SDS011;12318;51.262;7.066;2023-03-12T01:34:42;8.63;;;2.30;;
24161;SDS011;12318;51.262;7.066;2023-03-12T01:37:08;7.30;;;2.40;;
24161;SDS011;12318;51.262;7.066;2023-03-12T01:39:34;9.82;;;2.25;;
24161;SDS011;12318;51.262;7.066;2023-03-12T01:42:00;13.68;;;2.72;;
24161;SDS011;12318;51.262;7.066;2023-03-12T01:44:27;11.63;;;2.72;;
24161;SDS011;12318;51.262;7.066;2023-03-12T01:46:53;14.25;;;2.60;;
24161;SDS011;12318;51.262;7.066;2023-03-12T01:49:29;8.15;;;2.38;;
24161;SDS011;12318;51.262;7.066;2023-03-12T01:57:01;9.80;;;2.30;;
24161;SDS011;12318;51.262;7.066;2023-03-12T01:59:38;5.90;;;2.13;;
24161;SDS011;12318;51.262;7.066;2023-03-12T02:02:11;6.93;;;2.35;;
24161;SDS011;12318;51.262;7.066;2023-03-12T02:04:38;8.85;;;2.17;;
24161;SDS011;12318;51.262;7.066;2023-03-12T02:07:15;7.07;;;2.50;;
24161;SDS011;12318;51.262;7.066;2023-03-12T02:09:42;9.43;;;2.67;;
24161;SDS011;12318;51.262;7.066;2023-03-12T02:12:13;7.78;;;2.38;;
24161;SDS011;12318;51.262;7.066;2023-03-12T02:14:40;14.50;;;3.28;;
24161;SDS011;12318;51.262;7.066;2023-03-12T02:17:07;6.45;;;2.08;;
24161;SDS011;12318;51.262;7.066;2023-03-12T02:22:35;12.77;;;2.45;;
24161;SDS011;12318;51.262;7.066;2023-03-12T02:25:12;8.02;;;2.50;;
24161;SDS011;12318;51.262;7.066;2023-03-12T02:27:55;9.75;;;2.63;;
24161;SDS011;12318;51.262;7.066;2023-03-12T02:30:24;7.60;;;2.17;;
24161;SDS011;12318;51.262;7.066;2023-03-12T02:32:52;5.75;;;2.28;;
24161;SDS011;12318;51.262;7.066;2023-03-12T02:35:19;10.60;;;2.40;;
24161;SDS011;12318;51.262;7.066;2023-03-12T02:37:52;8.95;;;2.35;;
24161;SDS011;12318;51.262;7.066;2023-03-12T02:43:01;9.40;;;2.30;;
24161;SDS011;12318;51.262;7.066;2023-03-12T02:45:29;9.10;;;2.50;;
24161;SDS011;12318;51.262;7.066;2023-03-12T02:47:55;12.35;;;2.38;;
24161;SDS011;12318;51.262;7.066;2023-03-12T02:50:21;6.18;;;2.10;;
24161;SDS011;12318;51.262;7.066;2023-03-12T02:52:47;7.75;;;2.50;;
24161;SDS011;12318;51.262;7.066;2023-03-12T02:55:13;10.23;;;2.50;;
24161;SDS011;12318;51.262;7.066;2023-03-12T02:57:39;7.57;;;2.30;;
24161;SDS011;12318;51.262;7.066;2023-03-12T03:00:09;11.45;;;2.42;;
24161;SDS011;12318;51.262;7.066;2023-03-12T03:02:40;6.90;;;2.17;;
24161;SDS011;12318;51.262;7.066;2023-03-12T03:05:07;7.53;;;2.28;;
24161;SDS011;12318;51.262;7.066;2023-03-12T03:07:34;9.07;;;2.65;;
24161;SDS011;12318;51.262;7.066;2023-03-12T03:09:59;10.60;;;2.17;;
24161;SDS011;12318;51.262;7.066;2023-03-12T03:12:31;9.65;;;2.40;;
24161;SDS011;12318;51.262;7.066;2023-03-12T03:14:58;6.72;;;2.67;;
24161;SDS011;12318;51.262;7.066;2023-03-12T03:17:24;6.72;;;2.63;;
24161;SDS011;12318;51.262;7.066;2023-03-12T03:19:51;9.30;;;3.00;;
24161;SDS011;12318;51.262;7.066;2023-03-12T03:22:17;11.25;;;2.53;;
24161;SDS011;12318;51.262;7.066;2023-03-12T03:24:44;12.32;;;2.42;;
24161;SDS011;12318;51.262;7.066;2023-03-12T03:27:10;6.50;;;2.22;;
24161;SDS011;12318;51.262;7.066;2023-03-12T03:29:36;6.97;;;2.63;;
24161;SDS011;12318;51.262;7.066;2023-03-12T03:32:02;9.68;;;2.10;;
24161;SDS011;12318;51.262;7.066;2023-03-12T03:34:29;9.63;;;2.30;;
24161;SDS011;12318;51.262;7.066;2023-03-12T03:36:55;11.65;;;2.85;;
24161;SDS011;12318;51.262;7.066;2023-03-12T03:39:20;7.25;;;2.60;;
24161;SDS011;12318;51.262;7.066;2023-03-12T03:41:46;5.95;;;2.30;;
24161;SDS011;12318;51.262;7.066;2023-03-12T03:44:12;5.97;;;2.17;;
24161;SDS011;12318;51.262;7.066;2023-03-12T03:46:38;10.55;;;2.40;;
24161;SDS011;12318;51.262;7.066;2023-03-12T03:49:04;8.80;;;2.33;;
24161;SDS011;12318;51.262;7.066;2023-03-12T03:51:30;8.57;;;2.15;;
24161;SDS011;12318;51.262;7.066;2023-03-12T03:53:57;12.52;;;3.28;;
24161;SDS011;12318;51.262;7.066;2023-03-12T03:56:25;7.55;;;2.88;;
24161;SDS011;12318;51.262;7.066;2023-03-12T03:58:50;11.15;;;2.47;;
24161;SDS011;12318;51.262;7.066;2023-03-12T04:01:16;9.23;;;2.10;;
24161;SDS011;12318;51.262;7.066;2023-03-12T04:03:42;6.47;;;2.30;;
24161;SDS011;12318;51.262;7.066;2023-03-12T04:06:09;6.15;;;2.15;;
24161;SDS011;12318;51.262;7.066;2023-03-12T04:08:35;10.85;;;2.70;;
24161;SDS011;12318;51.262;7.066;2023-03-12T04:11:05;8.15;;;2.10;;
24161;SDS011;12318;51.262;7.066;2023-03-12T04:13:39;11.57;;;2.45;;
24161;SDS011;12318;51.262;7.066;2023-03-12T04:16:05;10.88;;;2.65;;
24161;SDS011;12318;51.262;7.066;2023-03-12T04:18:31;9.00;;;2.20;;
24161;SDS011;12318;51.262;7.066;2023-03-12T04:20:58;9.27;;;2.28;;
24161;SDS011;12318;51.262;7.066;2023-03-12T04:23:23;6.10;;;2.53;;
24161;SDS011;12318;51.262;7.066;2023-03-12T04:25:49;9.57;;;2.15;;
24161;SDS011;12318;51.262;7.066;2023-03-12T04:28:15;11.32;;;2.42;;
24161;SDS011;12318;51.262;7.066;2023-03-12T04:30:40;8.73;;;2.17;;
24161;SDS011;12318;51.262;7.066;2023-03-12T04:33:06;9.95;;;2.17;;
24161;SDS011;12318;51.262;7.066;2023-03-12T04:35:32;6.20;;;2.13;;
24161;SDS011;12318;51.262;7.066;2023-03-12T04:38:01;8.18;;;2.58;;
24161;SDS011;12318;51.262;7.066;2023-03-12T04:40:27;6.82;;;2.10;;
24161;SDS011;12318;51.262;7.066;2023-03-12T04:42:53;9.60;;;2.10;;
24161;SDS011;12318;51.262;7.066;2023-03-12T04:45:18;7.30;;;2.20;;
24161;SDS011;12318;51.262;7.066;2023-03-12T04:47:44;7.95;;;2.10;;
24161;SDS011;12318;51.262;7.066;2023-03-12T04:50:10;8.50;;;2.75;;
24161;SDS011;12318;51.262;7.066;2023-03-12T04:52:37;8.27;;;2.10;;
24161;SDS011;12318;51.262;7.066;2023-03-12T04:55:03;5.63;;;2.10;;
24161;SDS011;12318;51.262;7.066;2023-03-12T04:57:29;7.65;;;2.25;;
24161;SDS011;12318;51.262;7.066;2023-03-12T04:59:55;7.53;;;2.20;;
24161;SDS011;12318;51.262;7.066;2023-03-12T05:02:21;9.88;;;2.22;;
24161;SDS011;12318;51.262;7.066;2023-03-12T05:04:46;12.57;;;2.72;;
24161;SDS011;12318;51.262;7.066;2023-03-12T05:07:12;5.45;;;1.88;;
24161;SDS011;12318;51.262;7.066;2023-03-12T05:09:38;6.93;;;2.55;;
24161;SDS011;12318;51.262;7.066;2023-03-12T05:12:04;6.97;;;2.28;;
24161;SDS011;12318;51.262;7.066;2023-03-12T05:14:30;8.45;;;2.20;;
24161;SDS011;12318;51.262;7.066;2023-03-12T05:16:56;8.32;;;2.30;;
24161;SDS011;12318;51.262;7.066;2023-03-12T05:19:21;5.38;;;2.03;;
24161;SDS011;12318;51.262;7.066;2023-03-12T05:21:47;7.68;;;2.30;;
24161;SDS011;12318;51.262;7.066;2023-03-12T05:24:14;9.15;;;2.50;;
24161;SDS011;12318;51.262;7.066;2023-03-12T05:26:39;6.72;;;2.33;;
24161;SDS011;12318;51.262;7.066;2023-03-12T05:29:06;8.20;;;2.15;;
24161;SDS011;12318;51.262;7.066;2023-03-12T05:31:32;9.02;;;2.40;;
24161;SDS011;12318;51.262;7.066;2023-03-12T05:33:59;7.78;;;2.65;;
24161;SDS011;12318;51.262;7.066;2023-03-12T05:36:27;6.03;;;2.30;;
24161;SDS011;12318;51.262;7.066;2023-03-12T05:38:52;14.43;;;2.83;;
24161;SDS011;12318;51.262;7.066;2023-03-12T05:41:25;9.45;;;2.40;;
24161;SDS011;12318;51.262;7.066;2023-03-12T05:43:53;8.07;;;2.38;;
24161;SDS011;12318;51.262;7.066;2023-03-12T05:46:22;7.72;;;2.30;;
24161;SDS011;12318;51.262;7.066;2023-03-12T05:48:49;9.65;;;2.50;;
24161;SDS011;12318;51.262;7.066;2023-03-12T05:51:15;7.65;;;2.30;;
24161;SDS011;12318;51.262;7.066;2023-03-12T05:53:41;8.75;;;2.55;;
24161;SDS011;12318;51.262;7.066;2023-03-12T05:56:09;9.27;;;2.55;;
24161;SDS011;12318;51.262;7.066;2023-03-12T05:58:36;10.68;;;2.30;;
24161;SDS011;12318;51.262;7.066;2023-03-12T06:01:09;4.43;;;2.20;;
24161;SDS011;12318;51.262;7.066;2023-03-12T06:03:46;10.73;;;2.65;;
24161;SDS011;12318;51.262;7.066;2023-03-12T06:06:12;10.48;;;2.50;;
24161;SDS011;12318;51.262;7.066;2023-03-12T06:08:39;9.27;;;2.60;;
24161;SDS011;12318;51.262;7.066;2023-03-12T06:11:05;8.57;;;2.75;;
24161;SDS011;12318;51.262;7.066;2023-03-12T06:13:31;8.35;;;2.30;;
24161;SDS011;12318;51.262;7.066;2023-03-12T06:16:04;11.13;;;3.00;;
24161;SDS011;12318;51.262;7.066;2023-03-12T06:18:31;8.73;;;2.67;;
24161;SDS011;12318;51.262;7.066;2023-03-12T06:23:58;8.75;;;2.42;;
24161;SDS011;12318;51.262;7.066;2023-03-12T06:26:25;9.70;;;2.90;;
24161;SDS011;12318;51.262;7.066;2023-03-12T06:28:51;8.60;;;3.13;;
24161;SDS011;12318;51.262;7.066;2023-03-12T06:31:17;12.73;;;2.80;;
24161;SDS011;12318;51.262;7.066;2023-03-12T06:33:45;8.45;;;2.60;;
24161;SDS011;12318;51.262;7.066;2023-03-12T06:36:11;10.00;;;2.90;;
24161;SDS011;12318;51.262;7.066;2023-03-12T06:38:37;10.90;;;3.03;;
24161;SDS011;12318;51.262;7.066;2023-03-12T06:41:21;11.05;;;3.40;;
24161;SDS011;12318;51.262;7.066;2023-03-12T06:43:46;13.30;;;2.90;;
24161;SDS011;12318;51.262;7.066;2023-03-12T06:46:13;9.98;;;2.60;;
24161;SDS011;12318;51.262;7.066;2023-03-12T06:48:41;10.30;;;3.10;;
24161;SDS011;12318;51.262;7.066;2023-03-12T06:51:10;10.35;;;3.50;;
24161;SDS011;12318;51.262;7.066;2023-03-12T06:53:37;10.95;;;3.15;;
24161;SDS011;12318;51.262;7.066;2023-03-12T06:56:03;8.70;;;3.60;;
24161;SDS011;12318;51.262;7.066;2023-03-12T06:58:29;11.52;;;3.47;;
24161;SDS011;12318;51.262;7.066;2023-03-12T07:00:55;11.13;;;3.65;;
24161;SDS011;12318;51.262;7.066;2023-03-12T07:03:21;15.50;;;3.65;;
24161;SDS011;12318;51.262;7.066;2023-03-12T07:05:48;14.43;;;4.07;;
24161;SDS011;12318;51.262;7.066;2023-03-12T07:08:15;15.27;;;4.50;;
24161;SDS011;12318;51.262;7.066;2023-03-12T07:10:42;15.20;;;4.15;;
24161;SDS011;12318;51.262;7.066;2023-03-12T07:13:08;14.52;;;4.70;;
24161;SDS011;12318;51.262;7.066;2023-03-12T07:15:35;9.02;;;3.92;;
24161;SDS011;12318;51.262;7.066;2023-03-12T07:18:04;13.43;;;4.68;;
24161;SDS011;12318;51.262;7.066;2023-03-12T07:20:38;12.73;;;4.45;;
24161;SDS011;12318;51.262;7.066;2023-03-12T07:23:05;13.40;;;4.45;;
24161;SDS011;12318;51.262;7.066;2023-03-12T07:25:38;11.52;;;4.68;;
24161;SDS011;12318;51.262;7.066;2023-03-12T07:28:05;11.70;;;4.53;;
24161;SDS011;12318;51.262;7.066;2023-03-12T07:30:32;11.15;;;4.07;;
24161;SDS011;12318;51.262;7.066;2023-03-12T07:33:05;11.75;;;4.38;;
24161;SDS011;12318;51.262;7.066;2023-03-12T07:35:33;6.80;;;3.88;;
24161;SDS011;12318;51.262;7.066;2023-03-12T07:37:59;9.75;;;3.78;;
24161;SDS011;12318;51.262;7.066;2023-03-12T07:40:25;13.18;;;4.43;;
24161;SDS011;12318;51.262;7.066;2023-03-12T07:42:51;11.70;;;4.80;;
24161;SDS011;12318;51.262;7.066;2023-03-12T07:45:18;10.00;;;3.95;;
24161;SDS011;12318;51.262;7.066;2023-03-12T07:47:44;8.18;;;3.70;;
24161;SDS011;12318;51.262;7.066;2023-03-12T07:50:10;13.70;;;4.30;;
24161;SDS011;12318;51.262;7.066;2023-03-12T07:52:36;13.02;;;4.22;;
24161;SDS011;12318;51.262;7.066;2023-03-12T07:55:02;9.75;;;3.83;;
24161;SDS011;12318;51.262;7.066;2023-03-12T07:57:28;11.05;;;2.58;;
24161;SDS011;12318;51.262;7.066;2023-03-12T07:59:54;13.43;;;3.90;;
24161;SDS011;12318;51.262;7.066;2023-03-12T08:02:24;8.07;;;3.25;;
24161;SDS011;12318;51.262;7.066;2023-03-12T08:04:53;11.57;;;4.00;;
24161;SDS011;12318;51.262;7.066;2023-03-12T08:07:22;13.07;;;3.95;;
24161;SDS011;12318;51.262;7.066;2023-03-12T08:09:47;13.90;;;4.60;;
24161;SDS011;12318;51.262;7.066;2023-03-12T08:12:13;10.13;;;3.55;;
24161;SDS011;12318;51.262;7.066;2023-03-12T08:14:39;9.68;;;3.63;;
24161;SDS011;12318;51.262;7.066;2023-03-12T08:17:05;14.43;;;3.78;;
24161;SDS011;12318;51.262;7.066;2023-03-12T08:19:31;10.10;;;3.70;;
24161;SDS011;12318;51.262;7.066;2023-03-12T08:21:56;11.30;;;4.15;;
24161;SDS011;12318;51.262;7.066;2023-03-12T08:24:22;10.10;;;4.53;;
24161;SDS011;12318;51.262;7.066;2023-03-12T08:26:48;15.50;;;4.60;;
24161;SDS011;12318;51.262;7.066;2023-03-12T08:29:14;10.95;;;4.47;;
24161;SDS011;12318;51.262;7.066;2023-03-12T08:31:40;12.95;;;4.13;;
24161;SDS011;12318;51.262;7.066;2023-03-12T08:34:06;14.40;;;4.22;;
24161;SDS011;12318;51.262;7.066;2023-03-12T08:36:32;10.45;;;4.30;;
24161;SDS011;12318;51.262;7.066;2023-03-12T08:38:58;11.82;;;3.88;;
24161;SDS011;12318;51.262;7.066;2023-03-12T08:41:23;12.43;;;5.20;;
24161;SDS011;12318;51.262;7.066;2023-03-12T08:43:49;7.38;;;3.92;;
24161;SDS011;12318;51.262;7.066;2023-03-12T08:46:15;11.43;;;4.75;;
24161;SDS011;12318;51.262;7.066;2023-03-12T08:48:41;13.95;;;4.75;;
24161;SDS011;12318;51.262;7.066;2023-03-12T08:51:07;11.27;;;5.43;;
24161;SDS011;12318;51.262;7.066;2023-03-12T08:53:33;13.15;;;5.55;;
24161;SDS011;12318;51.262;7.066;2023-03-12T08:56:00;11.15;;;5.70;;
24161;SDS011;12318;51.262;7.066;2023-03-12T08:58:27;14.50;;;6.03;;
24161;SDS011;12318;51.262;7.066;2023-03-12T09:00:54;12.45;;;6.63;;
24161;SDS011;12318;51.262;7.066;2023-03-12T09:03:21;19.20;;;6.32;;
24161;SDS011;12318;51.262;7.066;2023-03-12T09:05:48;13.30;;;6.43;;
24161;SDS011;12318;51.262;7.066;2023-03-12T09:08:14;10.02;;;6.00;;
24161;SDS011;12318;51.262;7.066;2023-03-12T09:10:40;18.13;;;7.03;;
24161;SDS011;12318;51.262;7.066;2023-03-12T09:13:12;14.35;;;7.05;;
24161;SDS011;12318;51.262;7.066;2023-03-12T09:15:38;12.85;;;6.45;;
24161;SDS011;12318;51.262;7.066;2023-03-12T09:18:04;11.15;;;7.18;;
24161;SDS011;12318;51.262;7.066;2023-03-12T09:20:30;11.13;;;7.15;;
24161;SDS011;12318;51.262;7.066;2023-03-12T09:22:56;12.77;;;7.50;;
24161;SDS011;12318;51.262;7.066;2023-03-12T09:25:22;16.65;;;8.80;;
24161;SDS011;12318;51.262;7.066;2023-03-12T09:27:48;16.25;;;8.15;;
24161;SDS011;12318;51.262;7.066;2023-03-12T09:30:18;16.88;;;7.53;;
24161;SDS011;12318;51.262;7.066;2023-03-12T09:32:45;15.57;;;9.32;;
24161;SDS011;12318;51.262;7.066;2023-03-12T09:35:12;15.00;;;9.35;;
24161;SDS011;12318;51.262;7.066;2023-03-12T09:37:39;17.35;;;9.63;;
24161;SDS011;12318;51.262;7.066;2023-03-12T09:40:05;14.15;;;9.73;;
24161;SDS011;12318;51.262;7.066;2023-03-12T09:42:39;14.82;;;9.38;;
24161;SDS011;12318;51.262;7.066;2023-03-12T09:45:22;19.13;;;9.88;;
24161;SDS011;12318;51.262;7.066;2023-03-12T09:47:52;12.45;;;8.60;;
24161;SDS011;12318;51.262;7.066;2023-03-12T09:55:59;14.60;;;9.15;;
24161;SDS011;12318;51.262;7.066;2023-03-12T09:58:34;13.10;;;8.80;;
24161;SDS011;12318;51.262;7.066;2023-03-12T10:06:46;16.85;;;10.60;;
24161;SDS011;12318;51.262;7.066;2023-03-12T10:09:22;17.15;;;10.95;;
24161;SDS011;12318;51.262;7.066;2023-03-12T10:26:42;14.90;;;10.98;;
24161;SDS011;12318;51.262;7.066;2023-03-12T10:29:33;20.80;;;9.95;;
24161;SDS011;12318;51.262;7.066;2023-03-12T10:32:10;34.75;;;10.55;;
24161;SDS011;12318;51.262;7.066;2023-03-12T10:34:51;36.25;;;8.82;;
24161;SDS011;12318;51.262;7.066;2023-03-12T10:37:26;23.10;;;9.90;;
24161;SDS011;12318;51.262;7.066;2023-03-12T10:39:58;11.68;;;9.35;;
24161;SDS011;12318;51.262;7.066;2023-03-12T10:42:26;38.55;;;9.20;;
24161;SDS011;12318;51.262;7.066;2023-03-12T10:45:09;92.65;;;10.10;;
24161;SDS011;12318;51.262;7.066;2023-03-12T10:48:05;78.38;;;10.15;;
24161;SDS011;12318;51.262;7.066;2023-03-12T10:50:39;15.00;;;7.68;;
24161;SDS011;12318;51.262;7.066;2023-03-12T10:53:12;103.25;;;10.70;;
24161;SDS011;12318;51.262;7.066;2023-03-12T10:58:29;23.27;;;9.48;;
24161;SDS011;12318;51.262;7.066;2023-03-12T11:01:04;13.35;;;8.68;;
24161;SDS011;12318;51.262;7.066;2023-03-12T11:03:40;169.02;;;15.30;;
24161;SDS011;12318;51.262;7.066;2023-03-12T11:06:07;8.15;;;7.32;;
24161;SDS011;12318;51.262;7.066;2023-03-12T11:08:39;46.17;;;9.45;;
24161;SDS011;12318;51.262;7.066;2023-03-12T11:11:06;8.32;;;7.07;;
24161;SDS011;12318;51.262;7.066;2023-03-12T11:19:00;7.40;;;6.57;;
24161;SDS011;12318;51.262;7.066;2023-03-12T11:21:30;47.15;;;8.07;;
24161;SDS011;12318;51.262;7.066;2023-03-12T11:29:50;52.88;;;9.82;;
24161;SDS011;12318;51.262;7.066;2023-03-12T11:34:55;77.72;;;9.15;;
24161;SDS011;12318;51.262;7.066;2023-03-12T11:46:07;702.25;;;45.47;;
24161;SDS011;12318;51.262;7.066;2023-03-12T11:48:44;98.85;;;12.40;;
24161;SDS011;12318;51.262;7.066;2023-03-12T11:51:30;7.72;;;6.97;;
24161;SDS011;12318;51.262;7.066;2023-03-12T11:56:52;9.52;;;7.70;;
24161;SDS011;12318;51.262;7.066;2023-03-12T12:10:09;15.63;;;12.48;;
24161;SDS011;12318;51.262;7.066;2023-03-12T12:15:27;19.70;;;14.63;;
24161;SDS011;12318;51.262;7.066;2023-03-12T12:27:04;19.38;;;13.43;;
24161;SDS011;12318;51.262;7.066;2023-03-12T12:40:41;16.80;;;11.23;;
24161;SDS011;12318;51.262;7.066;2023-03-12T12:43:21;23.17;;;14.27;;
24161;SDS011;12318;51.262;7.066;2023-03-12T12:45:52;26.80;;;16.35;;
24161;SDS011;12318;51.262;7.066;2023-03-12T12:49:15;32.00;;;17.67;;
24161;SDS011;12318;51.262;7.066;2023-03-12T12:51:14;37.72;;;19.92;;
24161;SDS011;12318;51.262;7.066;2023-03-12T12:53:52;34.00;;;20.05;;
24161;SDS011;12318;51.262;7.066;2023-03-12T12:56:32;46.07;;;22.07;;
24161;SDS011;12318;51.262;7.066;2023-03-12T13:01:49;52.22;;;21.17;;
24161;SDS011;12318;51.262;7.066;2023-03-12T13:04:19;49.95;;;23.00;;
24161;SDS011;12318;51.262;7.066;2023-03-12T13:07:02;39.35;;;17.88;;
24161;SDS011;12318;51.262;7.066;2023-03-12T13:13:03;52.63;;;21.23;;
24161;SDS011;12318;51.262;7.066;2023-03-12T13:20:47;44.67;;;17.75;;
24161;SDS011;12318;51.262;7.066;2023-03-12T13:29:12;41.33;;;14.90;;
24161;SDS011;12318;51.262;7.066;2023-03-12T13:31:45;41.33;;;14.23;;
24161;SDS011;12318;51.262;7.066;2023-03-12T13:47:03;46.60;;;13.95;;
24161;SDS011;12318;51.262;7.066;2023-03-12T13:49:43;46.47;;;13.18;;
24161;SDS011;12318;51.262;7.066;2023-03-12T13:52:31;50.90;;;14.55;;
24161;SDS011;12318;51.262;7.066;2023-03-12T14:05:25;45.60;;;10.90;;
24161;SDS011;12318;51.262;7.066;2023-03-12T14:10:23;43.83;;;10.43;;
24161;SDS011;12318;51.262;7.066;2023-03-12T14:18:46;40.67;;;8.85;;
24161;SDS011;12318;51.262;7.066;2023-03-12T14:21:15;37.47;;;8.13;;
24161;SDS011;12318;51.262;7.066;2023-03-12T14:23:49;35.28;;;7.82;;
24161;SDS011;12318;51.262;7.066;2023-03-12T14:26:22;39.25;;;7.97;;
24161;SDS011;12318;51.262;7.066;2023-03-12T14:31:30;40.97;;;7.25;;
24161;SDS011;12318;51.262;7.066;2023-03-12T14:34:11;42.50;;;7.70;;
24161;SDS011;12318;51.262;7.066;2023-03-12T14:39:29;33.75;;;7.03;;
24161;SDS011;12318;51.262;7.066;2023-03-12T14:41:58;44.15;;;6.95;;
24161;SDS011;12318;51.262;7.066;2023-03-12T14:44:28;45.95;;;6.35;;
24161;SDS011;12318;51.262;7.066;2023-03-12T14:47:02;37.20;;;6.55;;
24161;SDS011;12318;51.262;7.066;2023-03-12T14:49:37;46.60;;;7.82;;
24161;SDS011;12318;51.262;7.066;2023-03-12T14:52:04;33.63;;;6.30;;
24161;SDS011;12318;51.262;7.066;2023-03-12T14:54:30;43.28;;;6.82;;
24161;SDS011;12318;51.262;7.066;2023-03-12T14:56:56;33.78;;;7.15;;
24161;SDS011;12318;51.262;7.066;2023-03-12T14:59:29;32.08;;;6.40;;
24161;SDS011;12318;51.262;7.066;2023-03-12T15:02:10;39.70;;;6.50;;
24161;SDS011;12318;51.262;7.066;2023-03-12T15:04:36;31.05;;;6.18;;
24161;SDS011;12318;51.262;7.066;2023-03-12T15:07:02;32.90;;;6.10;;
24161;SDS011;12318;51.262;7.066;2023-03-12T15:09:31;36.10;;;6.03;;
24161;SDS011;12318;51.262;7.066;2023-03-12T15:12:06;29.55;;;5.50;;
24161;SDS011;12318;51.262;7.066;2023-03-12T15:14:51;32.15;;;6.28;;
24161;SDS011;12318;51.262;7.066;2023-03-12T15:17:29;29.73;;;5.32;;
24161;SDS011;12318;51.262;7.066;2023-03-12T15:19:55;38.05;;;6.63;;
24161;SDS011;12318;51.262;7.066;2023-03-12T15:22:22;35.17;;;6.00;;
24161;SDS011;12318;51.262;7.066;2023-03-12T15:24:51;36.55;;;6.30;;
24161;SDS011;12318;51.262;7.066;2023-03-12T15:29:43;35.60;;;6.38;;
24161;SDS011;12318;51.262;7.066;2023-03-12T15:32:12;35.05;;;6.22;;
24161;SDS011;12318;51.262;7.066;2023-03-12T15:34:39;38.38;;;6.95;;
24161;SDS011;12318;51.262;7.066;2023-03-12T15:37:22;36.53;;;6.22;;
24161;SDS011;12318;51.262;7.066;2023-03-12T15:39:53;27.50;;;4.93;;
24161;SDS011;12318;51.262;7.066;2023-03-12T15:42:21;31.00;;;6.03;;
24161;SDS011;12318;51.262;7.066;2023-03-12T15:44:52;37.38;;;6.32;;
24161;SDS011;12318;51.262;7.066;2023-03-12T15:47:27;41.65;;;7.30;;
24161;SDS011;12318;51.262;7.066;2023-03-12T15:50:10;38.75;;;6.93;;
24161;SDS011;12318;51.262;7.066;2023-03-12T15:52:57;35.85;;;7.10;;
24161;SDS011;12318;51.262;7.066;2023-03-12T15:55:35;39.63;;;6.72;;
24161;SDS011;12318;51.262;7.066;2023-03-12T15:58:01;37.17;;;6.68;;
24161;SDS011;12318;51.262;7.066;2023-03-12T16:00:47;42.38;;;6.60;;
24161;SDS011;12318;51.262;7.066;2023-03-12T16:03:15;42.47;;;7.20;;
24161;SDS011;12318;51.262;7.066;2023-03-12T16:05:42;40.42;;;7.45;;
24161;SDS011;12318;51.262;7.066;2023-03-12T16:10:43;35.22;;;6.68;;
24161;SDS011;12318;51.262;7.066;2023-03-12T16:13:11;38.28;;;7.18;;
24161;SDS011;12318;51.262;7.066;2023-03-12T16:15:39;31.67;;;6.97;;
24161;SDS011;12318;51.262;7.066;2023-03-12T16:18:16;34.80;;;6.97;;
24161;SDS011;12318;51.262;7.066;2023-03-12T16:20:44;36.17;;;6.38;;
24161;SDS011;12318;51.262;7.066;2023-03-12T16:23:10;35.55;;;6.32;;
24161;SDS011;12318;51.262;7.066;2023-03-12T16:25:36;35.97;;;6.82;;
24161;SDS011;12318;51.262;7.066;2023-03-12T16:28:03;36.58;;;6.60;;
24161;SDS011;12318;51.262;7.066;2023-03-12T16:30:34;36.33;;;6.63;;
24161;SDS011;12318;51.262;7.066;2023-03-12T16:33:01;39.33;;;7.05;;
24161;SDS011;12318;51.262;7.066;2023-03-12T16:35:29;39.78;;;6.78;;
24161;SDS011;12318;51.262;7.066;2023-03-12T16:37:56;37.92;;;7.90;;
24161;SDS011;12318;51.262;7.066;2023-03-12T16:40:22;38.45;;;7.18;;
24161;SDS011;12318;51.262;7.066;2023-03-12T16:42:49;36.55;;;6.72;;
24161;SDS011;12318;51.262;7.066;2023-03-12T16:45:17;35.97;;;6.78;;
24161;SDS011;12318;51.262;7.066;2023-03-12T16:47:43;41.63;;;6.72;;
24161;SDS011;12318;51.262;7.066;2023-03-12T16:50:13;28.80;;;5.63;;
24161;SDS011;12318;51.262;7.066;2023-03-12T16:52:40;40.03;;;5.50;;
24161;SDS011;12318;51.262;7.066;2023-03-12T16:55:06;36.17;;;6.43;;
24161;SDS011;12318;51.262;7.066;2023-03-12T16:57:32;37.88;;;6.53;;
24161;SDS011;12318;51.262;7.066;2023-03-12T17:00:04;29.02;;;5.88;;
24161;SDS011;12318;51.262;7.066;2023-03-12T17:02:36;39.38;;;6.18;;
24161;SDS011;12318;51.262;7.066;2023-03-12T17:05:04;37.78;;;6.60;;
24161;SDS011;12318;51.262;7.066;2023-03-12T17:07:30;36.42;;;6.53;;
24161;SDS011;12318;51.262;7.066;2023-03-12T17:09:56;38.25;;;6.75;;
24161;SDS011;12318;51.262;7.066;2023-03-12T17:12:32;39.17;;;6.60;;
24161;SDS011;12318;51.262;7.066;2023-03-12T17:15:01;37.97;;;6.97;;
24161;SDS011;12318;51.262;7.066;2023-03-12T17:17:29;38.30;;;6.85;;
24161;SDS011;12318;51.262;7.066;2023-03-12T17:19:55;32.65;;;6.05;;
24161;SDS011;12318;51.262;7.066;2023-03-12T17:22:24;38.15;;;6.68;;
24161;SDS011;12318;51.262;7.066;2023-03-12T17:24:50;34.33;;;6.70;;
24161;SDS011;12318;51.262;7.066;2023-03-12T17:27:16;34.33;;;6.60;;
24161;SDS011;12318;51.262;7.066;2023-03-12T17:29:41;37.72;;;6.93;;